sensor_id;sensor_type;location;lat;lon;timestamp;P1;durP1;ratioP1;P2;durP2;ratioP2
48859;SDS011;34679;51.436;-2.518;2024-03-25T00:00:42;15.60;;;4.07;;
48859;SDS011;34679;51.436;-2.518;2024-03-25T00:03:08;9.70;;;3.95;;
48859;SDS011;34679;51.436;-2.518;2024-03-25T00:05:33;10.52;;;3.85;;
48859;SDS011;34679;51.436;-2.518;2024-03-25T00:07:59;13.15;;;3.95;;
48859;SDS011;34679;51.436;-2.518;2024-03-25T00:10:25;17.00;;;3.85;;
48859;SDS011;34679;51.436;-2.518;2024-03-25T00:12:50;7.60;;;3.55;;
48859;SDS011;34679;51.436;-2.518;2024-03-25T00:15:20;10.82;;;3.60;;
48859;SDS011;34679;51.436;-2.518;2024-03-25T00:17:46;9.98;;;3.65;;
48859;SDS011;34679;51.436;-2.518;2024-03-25T00:20:13;10.15;;;3.40;;
48859;SDS011;34679;51.436;-2.518;2024-03-25T00:22:40;10.07;;;3.35;;
48859;SDS011;34679;51.436;-2.518;2024-03-25T00:25:06;11.07;;;3.40;;
48859;SDS011;34679;51.436;-2.518;2024-03-25T00:27:32;15.30;;;3.80;;
48859;SDS011;34679;51.436;-2.518;2024-03-25T00:29:58;15.68;;;4.20;;
48859;SDS011;34679;51.436;-2.518;2024-03-25T00:32:24;14.43;;;3.88;;
48859;SDS011;34679;51.436;-2.518;2024-03-25T00:34:49;11.80;;;3.70;;
48859;SDS011;34679;51.436;-2.518;2024-03-25T00:37:15;8.30;;;3.35;;
48859;SDS011;34679;51.436;-2.518;2024-03-25T00:39:41;12.82;;;3.60;;
48859;SDS011;34679;51.436;-2.518;2024-03-25T00:42:07;21.05;;;4.65;;
48859;SDS011;34679;51.436;-2.518;2024-03-25T00:44:32;16.00;;;3.72;;
48859;SDS011;34679;51.436;-2.518;2024-03-25T00:46:58;9.25;;;4.40;;
48859;SDS011;34679;51.436;-2.518;2024-03-25T00:49:24;9.50;;;2.97;;
48859;SDS011;34679;51.436;-2.518;2024-03-25T00:51:49;16.25;;;3.85;;
48859;SDS011;34679;51.436;-2.518;2024-03-25T00:54:15;11.95;;;3.85;;
48859;SDS011;34679;51.436;-2.518;2024-03-25T00:56:41;11.63;;;3.40;;
48859;SDS011;34679;51.436;-2.518;2024-03-25T00:59:07;9.73;;;3.20;;
48859;SDS011;34679;51.436;-2.518;2024-03-25T01:01:32;12.45;;;3.45;;
48859;SDS011;34679;51.436;-2.518;2024-03-25T01:04:00;8.98;;;3.10;;
48859;SDS011;34679;51.436;-2.518;2024-03-25T01:06:26;12.02;;;2.72;;
48859;SDS011;34679;51.436;-2.518;2024-03-25T01:08:52;9.70;;;3.45;;
48859;SDS011;34679;51.436;-2.518;2024-03-25T01:11:18;15.65;;;3.33;;
48859;SDS011;34679;51.436;-2.518;2024-03-25T01:13:43;16.23;;;4.00;;
48859;SDS011;34679;51.436;-2.518;2024-03-25T01:16:09;12.35;;;3.38;;
48859;SDS011;34679;51.436;-2.518;2024-03-25T01:18:36;16.88;;;3.50;;
48859;SDS011;34679;51.436;-2.518;2024-03-25T01:21:01;17.08;;;4.28;;
48859;SDS011;34679;51.436;-2.518;2024-03-25T01:23:27;15.15;;;3.90;;
48859;SDS011;34679;51.436;-2.518;2024-03-25T01:25:53;8.60;;;3.20;;
48859;SDS011;34679;51.436;-2.518;2024-03-25T01:28:18;14.07;;;3.58;;
48859;SDS011;34679;51.436;-2.518;2024-03-25T01:30:44;12.30;;;3.70;;
48859;SDS011;34679;51.436;-2.518;2024-03-25T01:33:10;15.77;;;3.55;;
48859;SDS011;34679;51.436;-2.518;2024-03-25T01:35:36;21.00;;;4.25;;
48859;SDS011;34679;51.436;-2.518;2024-03-25T01:38:01;11.10;;;4.10;;
48859;SDS011;34679;51.436;-2.518;2024-03-25T01:40:28;8.55;;;3.53;;
48859;SDS011;34679;51.436;-2.518;2024-03-25T01:43:01;14.60;;;4.03;;
48859;SDS011;34679;51.436;-2.518;2024-03-25T01:45:34;12.23;;;3.83;;
48859;SDS011;34679;51.436;-2.518;2024-03-25T01:48:07;16.23;;;4.35;;
48859;SDS011;34679;51.436;-2.518;2024-03-25T01:50:35;10.88;;;4.72;;
48859;SDS011;34679;51.436;-2.518;2024-03-25T01:53:04;13.82;;;4.78;;
48859;SDS011;34679;51.436;-2.518;2024-03-25T01:55:30;10.20;;;3.88;;
48859;SDS011;34679;51.436;-2.518;2024-03-25T01:57:59;14.15;;;3.55;;
48859;SDS011;34679;51.436;-2.518;2024-03-25T02:00:26;11.30;;;3.65;;
48859;SDS011;34679;51.436;-2.518;2024-03-25T02:02:52;13.23;;;3.60;;
48859;SDS011;34679;51.436;-2.518;2024-03-25T02:05:19;17.65;;;4.38;;
48859;SDS011;34679;51.436;-2.518;2024-03-25T02:07:45;12.15;;;3.78;;
48859;SDS011;34679;51.436;-2.518;2024-03-25T02:10:12;12.30;;;3.97;;
48859;SDS011;34679;51.436;-2.518;2024-03-25T02:12:41;11.02;;;3.58;;
48859;SDS011;34679;51.436;-2.518;2024-03-25T02:15:07;15.23;;;4.43;;
48859;SDS011;34679;51.436;-2.518;2024-03-25T02:17:34;13.25;;;3.95;;
48859;SDS011;34679;51.436;-2.518;2024-03-25T02:20:00;10.95;;;4.25;;
48859;SDS011;34679;51.436;-2.518;2024-03-25T02:22:28;13.05;;;3.28;;
48859;SDS011;34679;51.436;-2.518;2024-03-25T02:24:54;17.95;;;4.25;;
48859;SDS011;34679;51.436;-2.518;2024-03-25T02:27:22;11.40;;;4.15;;
48859;SDS011;34679;51.436;-2.518;2024-03-25T02:29:49;9.38;;;3.97;;
48859;SDS011;34679;51.436;-2.518;2024-03-25T02:32:15;16.27;;;3.72;;
48859;SDS011;34679;51.436;-2.518;2024-03-25T02:34:43;6.90;;;3.50;;
48859;SDS011;34679;51.436;-2.518;2024-03-25T02:37:12;16.00;;;3.55;;
48859;SDS011;34679;51.436;-2.518;2024-03-25T02:39:38;12.93;;;3.10;;
48859;SDS011;34679;51.436;-2.518;2024-03-25T02:42:04;13.60;;;3.83;;
48859;SDS011;34679;51.436;-2.518;2024-03-25T02:44:30;11.88;;;3.42;;
48859;SDS011;34679;51.436;-2.518;2024-03-25T02:46:57;11.32;;;4.35;;
48859;SDS011;34679;51.436;-2.518;2024-03-25T02:49:23;13.43;;;5.13;;
48859;SDS011;34679;51.436;-2.518;2024-03-25T02:51:49;16.17;;;3.80;;
48859;SDS011;34679;51.436;-2.518;2024-03-25T02:54:14;10.45;;;3.78;;
48859;SDS011;34679;51.436;-2.518;2024-03-25T02:56:41;8.82;;;4.00;;
48859;SDS011;34679;51.436;-2.518;2024-03-25T02:59:08;13.23;;;3.95;;
48859;SDS011;34679;51.436;-2.518;2024-03-25T03:01:33;18.00;;;4.35;;
48859;SDS011;34679;51.436;-2.518;2024-03-25T03:03:59;16.25;;;4.80;;
48859;SDS011;34679;51.436;-2.518;2024-03-25T03:06:25;13.68;;;4.15;;
48859;SDS011;34679;51.436;-2.518;2024-03-25T03:08:50;8.52;;;3.47;;
48859;SDS011;34679;51.436;-2.518;2024-03-25T03:11:16;10.32;;;3.70;;
48859;SDS011;34679;51.436;-2.518;2024-03-25T03:13:41;15.73;;;4.50;;
48859;SDS011;34679;51.436;-2.518;2024-03-25T03:16:07;18.95;;;4.60;;
48859;SDS011;34679;51.436;-2.518;2024-03-25T03:18:33;13.00;;;3.72;;
48859;SDS011;34679;51.436;-2.518;2024-03-25T03:20:58;13.40;;;3.72;;
48859;SDS011;34679;51.436;-2.518;2024-03-25T03:23:24;12.40;;;4.00;;
48859;SDS011;34679;51.436;-2.518;2024-03-25T03:25:50;13.32;;;4.43;;
48859;SDS011;34679;51.436;-2.518;2024-03-25T03:28:16;11.55;;;3.80;;
48859;SDS011;34679;51.436;-2.518;2024-03-25T03:30:42;12.10;;;4.05;;
48859;SDS011;34679;51.436;-2.518;2024-03-25T03:33:08;13.32;;;3.95;;
48859;SDS011;34679;51.436;-2.518;2024-03-25T03:35:34;8.98;;;3.55;;
48859;SDS011;34679;51.436;-2.518;2024-03-25T03:38:00;17.25;;;3.90;;
48859;SDS011;34679;51.436;-2.518;2024-03-25T03:40:26;18.05;;;3.80;;
48859;SDS011;34679;51.436;-2.518;2024-03-25T03:42:53;9.68;;;2.95;;
48859;SDS011;34679;51.436;-2.518;2024-03-25T03:45:18;10.38;;;2.80;;
48859;SDS011;34679;51.436;-2.518;2024-03-25T03:47:44;11.70;;;3.10;;
48859;SDS011;34679;51.436;-2.518;2024-03-25T03:50:10;7.75;;;2.45;;
48859;SDS011;34679;51.436;-2.518;2024-03-25T03:52:35;6.88;;;3.22;;
48859;SDS011;34679;51.436;-2.518;2024-03-25T03:55:01;9.73;;;2.53;;
48859;SDS011;34679;51.436;-2.518;2024-03-25T03:57:27;6.97;;;2.70;;
48859;SDS011;34679;51.436;-2.518;2024-03-25T03:59:52;7.80;;;2.40;;
48859;SDS011;34679;51.436;-2.518;2024-03-25T04:02:18;9.10;;;3.33;;
48859;SDS011;34679;51.436;-2.518;2024-03-25T04:04:44;10.90;;;2.90;;
48859;SDS011;34679;51.436;-2.518;2024-03-25T04:07:09;9.02;;;3.88;;
48859;SDS011;34679;51.436;-2.518;2024-03-25T04:09:35;5.00;;;2.35;;
48859;SDS011;34679;51.436;-2.518;2024-03-25T04:12:01;10.70;;;3.38;;
48859;SDS011;34679;51.436;-2.518;2024-03-25T04:14:26;10.25;;;2.53;;
48859;SDS011;34679;51.436;-2.518;2024-03-25T04:16:52;11.57;;;3.55;;
48859;SDS011;34679;51.436;-2.518;2024-03-25T04:19:24;9.45;;;2.88;;
48859;SDS011;34679;51.436;-2.518;2024-03-25T04:21:50;6.05;;;2.70;;
48859;SDS011;34679;51.436;-2.518;2024-03-25T04:24:17;10.43;;;3.80;;
48859;SDS011;34679;51.436;-2.518;2024-03-25T04:26:44;12.02;;;3.80;;
48859;SDS011;34679;51.436;-2.518;2024-03-25T04:29:10;10.65;;;3.58;;
48859;SDS011;34679;51.436;-2.518;2024-03-25T04:31:35;8.68;;;4.43;;
48859;SDS011;34679;51.436;-2.518;2024-03-25T04:34:02;11.88;;;3.67;;
48859;SDS011;34679;51.436;-2.518;2024-03-25T04:36:29;10.75;;;4.00;;
48859;SDS011;34679;51.436;-2.518;2024-03-25T04:38:55;6.88;;;4.30;;
48859;SDS011;34679;51.436;-2.518;2024-03-25T04:41:21;8.75;;;3.92;;
48859;SDS011;34679;51.436;-2.518;2024-03-25T04:43:46;7.90;;;4.20;;
48859;SDS011;34679;51.436;-2.518;2024-03-25T04:46:12;5.47;;;3.35;;
48859;SDS011;34679;51.436;-2.518;2024-03-25T04:48:38;12.52;;;4.50;;
48859;SDS011;34679;51.436;-2.518;2024-03-25T04:51:03;11.52;;;4.75;;
48859;SDS011;34679;51.436;-2.518;2024-03-25T04:53:29;8.57;;;4.13;;
48859;SDS011;34679;51.436;-2.518;2024-03-25T04:55:55;14.43;;;4.57;;
48859;SDS011;34679;51.436;-2.518;2024-03-25T04:58:21;8.23;;;4.20;;
48859;SDS011;34679;51.436;-2.518;2024-03-25T05:00:47;12.73;;;4.20;;
48859;SDS011;34679;51.436;-2.518;2024-03-25T05:03:12;7.68;;;3.85;;
48859;SDS011;34679;51.436;-2.518;2024-03-25T05:05:38;10.32;;;4.50;;
48859;SDS011;34679;51.436;-2.518;2024-03-25T05:08:04;4.93;;;3.40;;
48859;SDS011;34679;51.436;-2.518;2024-03-25T05:10:29;9.15;;;4.55;;
48859;SDS011;34679;51.436;-2.518;2024-03-25T05:12:55;7.93;;;4.15;;
48859;SDS011;34679;51.436;-2.518;2024-03-25T05:15:22;7.35;;;4.25;;
48859;SDS011;34679;51.436;-2.518;2024-03-25T05:17:47;13.10;;;5.70;;
48859;SDS011;34679;51.436;-2.518;2024-03-25T05:20:13;8.25;;;3.78;;
48859;SDS011;34679;51.436;-2.518;2024-03-25T05:22:39;6.97;;;4.13;;
48859;SDS011;34679;51.436;-2.518;2024-03-25T05:25:05;10.00;;;4.45;;
48859;SDS011;34679;51.436;-2.518;2024-03-25T05:27:30;7.85;;;3.97;;
48859;SDS011;34679;51.436;-2.518;2024-03-25T05:29:56;9.32;;;4.47;;
48859;SDS011;34679;51.436;-2.518;2024-03-25T05:32:22;12.05;;;4.75;;
48859;SDS011;34679;51.436;-2.518;2024-03-25T05:34:47;4.75;;;4.25;;
48859;SDS011;34679;51.436;-2.518;2024-03-25T05:37:13;10.20;;;5.72;;
48859;SDS011;34679;51.436;-2.518;2024-03-25T05:39:40;9.10;;;4.05;;
48859;SDS011;34679;51.436;-2.518;2024-03-25T05:42:05;5.68;;;4.35;;
48859;SDS011;34679;51.436;-2.518;2024-03-25T05:44:31;9.35;;;4.30;;
48859;SDS011;34679;51.436;-2.518;2024-03-25T05:46:57;6.75;;;3.70;;
48859;SDS011;34679;51.436;-2.518;2024-03-25T05:49:23;7.32;;;5.07;;
48859;SDS011;34679;51.436;-2.518;2024-03-25T05:51:48;4.75;;;3.67;;
48859;SDS011;34679;51.436;-2.518;2024-03-25T05:54:14;6.35;;;4.10;;
48859;SDS011;34679;51.436;-2.518;2024-03-25T05:56:40;7.55;;;3.60;;
48859;SDS011;34679;51.436;-2.518;2024-03-25T05:59:05;8.38;;;4.38;;
48859;SDS011;34679;51.436;-2.518;2024-03-25T06:01:31;4.25;;;3.60;;
48859;SDS011;34679;51.436;-2.518;2024-03-25T06:03:56;9.82;;;4.22;;
48859;SDS011;34679;51.436;-2.518;2024-03-25T06:06:22;8.18;;;3.65;;
48859;SDS011;34679;51.436;-2.518;2024-03-25T06:08:48;4.78;;;3.28;;
48859;SDS011;34679;51.436;-2.518;2024-03-25T06:11:15;4.95;;;3.15;;
48859;SDS011;34679;51.436;-2.518;2024-03-25T06:13:45;4.10;;;3.17;;
48859;SDS011;34679;51.436;-2.518;2024-03-25T06:16:12;8.25;;;3.10;;
48859;SDS011;34679;51.436;-2.518;2024-03-25T06:18:38;4.07;;;2.90;;
48859;SDS011;34679;51.436;-2.518;2024-03-25T06:21:05;8.13;;;2.85;;
48859;SDS011;34679;51.436;-2.518;2024-03-25T06:23:31;5.38;;;2.45;;
48859;SDS011;34679;51.436;-2.518;2024-03-25T06:25:57;3.47;;;2.15;;
48859;SDS011;34679;51.436;-2.518;2024-03-25T06:28:23;2.30;;;1.98;;
48859;SDS011;34679;51.436;-2.518;2024-03-25T06:30:49;1.98;;;1.88;;
48859;SDS011;34679;51.436;-2.518;2024-03-25T06:33:34;3.17;;;2.25;;
48859;SDS011;34679;51.436;-2.518;2024-03-25T06:36:18;7.07;;;1.65;;
48859;SDS011;34679;51.436;-2.518;2024-03-25T06:38:44;5.18;;;1.83;;
48859;SDS011;34679;51.436;-2.518;2024-03-25T06:41:10;5.28;;;2.10;;
48859;SDS011;34679;51.436;-2.518;2024-03-25T06:43:36;3.38;;;1.67;;
48859;SDS011;34679;51.436;-2.518;2024-03-25T06:46:09;2.75;;;1.58;;
48859;SDS011;34679;51.436;-2.518;2024-03-25T06:48:34;3.72;;;1.88;;
48859;SDS011;34679;51.436;-2.518;2024-03-25T06:51:00;6.53;;;1.90;;
48859;SDS011;34679;51.436;-2.518;2024-03-25T06:53:29;3.88;;;2.00;;
48859;SDS011;34679;51.436;-2.518;2024-03-25T06:55:55;5.88;;;2.47;;
48859;SDS011;34679;51.436;-2.518;2024-03-25T06:58:23;4.78;;;2.13;;
48859;SDS011;34679;51.436;-2.518;2024-03-25T07:00:50;5.78;;;1.80;;
48859;SDS011;34679;51.436;-2.518;2024-03-25T07:03:16;9.38;;;2.50;;
48859;SDS011;34679;51.436;-2.518;2024-03-25T07:05:45;7.53;;;2.25;;
48859;SDS011;34679;51.436;-2.518;2024-03-25T07:08:15;16.13;;;2.22;;
48859;SDS011;34679;51.436;-2.518;2024-03-25T07:10:41;16.77;;;2.70;;
48859;SDS011;34679;51.436;-2.518;2024-03-25T07:13:07;12.27;;;2.67;;
48859;SDS011;34679;51.436;-2.518;2024-03-25T07:15:33;11.82;;;2.40;;
48859;SDS011;34679;51.436;-2.518;2024-03-25T07:17:58;10.60;;;1.90;;
48859;SDS011;34679;51.436;-2.518;2024-03-25T07:20:25;22.67;;;4.32;;
48859;SDS011;34679;51.436;-2.518;2024-03-25T07:22:51;11.30;;;2.00;;
48859;SDS011;34679;51.436;-2.518;2024-03-25T07:25:20;8.07;;;2.30;;
48859;SDS011;34679;51.436;-2.518;2024-03-25T07:27:46;12.02;;;2.50;;
48859;SDS011;34679;51.436;-2.518;2024-03-25T07:30:12;17.75;;;2.00;;
48859;SDS011;34679;51.436;-2.518;2024-03-25T07:32:37;16.17;;;2.92;;
48859;SDS011;34679;51.436;-2.518;2024-03-25T07:35:03;19.77;;;3.38;;
48859;SDS011;34679;51.436;-2.518;2024-03-25T07:37:30;18.42;;;3.13;;
48859;SDS011;34679;51.436;-2.518;2024-03-25T07:39:56;11.20;;;2.17;;
48859;SDS011;34679;51.436;-2.518;2024-03-25T07:42:21;13.38;;;2.38;;
48859;SDS011;34679;51.436;-2.518;2024-03-25T07:44:47;11.73;;;2.35;;
48859;SDS011;34679;51.436;-2.518;2024-03-25T07:47:12;9.82;;;1.90;;
48859;SDS011;34679;51.436;-2.518;2024-03-25T07:49:38;17.05;;;2.83;;
48859;SDS011;34679;51.436;-2.518;2024-03-25T07:52:05;18.02;;;4.10;;
48859;SDS011;34679;51.436;-2.518;2024-03-25T07:54:31;10.02;;;2.35;;
48859;SDS011;34679;51.436;-2.518;2024-03-25T07:56:57;12.55;;;3.25;;
48859;SDS011;34679;51.436;-2.518;2024-03-25T07:59:23;8.57;;;1.90;;
48859;SDS011;34679;51.436;-2.518;2024-03-25T08:01:48;13.63;;;3.40;;
48859;SDS011;34679;51.436;-2.518;2024-03-25T08:04:15;18.85;;;2.40;;
48859;SDS011;34679;51.436;-2.518;2024-03-25T08:06:41;13.57;;;2.28;;
48859;SDS011;34679;51.436;-2.518;2024-03-25T08:09:07;14.40;;;2.22;;
48859;SDS011;34679;51.436;-2.518;2024-03-25T08:11:34;11.38;;;2.63;;
48859;SDS011;34679;51.436;-2.518;2024-03-25T08:14:00;9.50;;;1.98;;
48859;SDS011;34679;51.436;-2.518;2024-03-25T08:16:25;10.25;;;2.38;;
48859;SDS011;34679;51.436;-2.518;2024-03-25T08:18:51;10.77;;;1.58;;
48859;SDS011;34679;51.436;-2.518;2024-03-25T08:21:16;13.25;;;2.92;;
48859;SDS011;34679;51.436;-2.518;2024-03-25T08:23:45;16.85;;;2.28;;
48859;SDS011;34679;51.436;-2.518;2024-03-25T08:26:11;9.20;;;2.72;;
48859;SDS011;34679;51.436;-2.518;2024-03-25T08:28:37;13.75;;;3.45;;
48859;SDS011;34679;51.436;-2.518;2024-03-25T08:31:03;10.38;;;2.28;;
48859;SDS011;34679;51.436;-2.518;2024-03-25T08:33:29;9.50;;;1.80;;
48859;SDS011;34679;51.436;-2.518;2024-03-25T08:35:54;15.32;;;3.30;;
48859;SDS011;34679;51.436;-2.518;2024-03-25T08:38:20;15.32;;;2.38;;
48859;SDS011;34679;51.436;-2.518;2024-03-25T08:40:46;13.23;;;2.22;;
48859;SDS011;34679;51.436;-2.518;2024-03-25T08:43:12;15.30;;;3.03;;
48859;SDS011;34679;51.436;-2.518;2024-03-25T08:45:38;10.25;;;1.75;;
48859;SDS011;34679;51.436;-2.518;2024-03-25T08:48:04;12.63;;;2.10;;
48859;SDS011;34679;51.436;-2.518;2024-03-25T08:50:29;10.23;;;2.33;;
48859;SDS011;34679;51.436;-2.518;2024-03-25T08:52:55;7.35;;;2.28;;
48859;SDS011;34679;51.436;-2.518;2024-03-25T08:55:21;9.18;;;1.77;;
48859;SDS011;34679;51.436;-2.518;2024-03-25T08:57:46;17.25;;;3.70;;
48859;SDS011;34679;51.436;-2.518;2024-03-25T09:00:12;10.60;;;2.05;;
48859;SDS011;34679;51.436;-2.518;2024-03-25T09:02:39;10.30;;;2.97;;
48859;SDS011;34679;51.436;-2.518;2024-03-25T09:05:04;9.30;;;2.53;;
48859;SDS011;34679;51.436;-2.518;2024-03-25T09:07:31;7.18;;;2.30;;
48859;SDS011;34679;51.436;-2.518;2024-03-25T09:09:57;13.90;;;2.35;;
48859;SDS011;34679;51.436;-2.518;2024-03-25T09:12:41;6.20;;;1.83;;
48859;SDS011;34679;51.436;-2.518;2024-03-25T09:15:06;8.98;;;2.25;;
48859;SDS011;34679;51.436;-2.518;2024-03-25T09:17:32;11.43;;;2.25;;
48859;SDS011;34679;51.436;-2.518;2024-03-25T09:19:58;7.10;;;1.98;;
48859;SDS011;34679;51.436;-2.518;2024-03-25T09:22:23;13.02;;;1.88;;
48859;SDS011;34679;51.436;-2.518;2024-03-25T09:24:49;15.73;;;2.30;;
48859;SDS011;34679;51.436;-2.518;2024-03-25T09:27:15;10.18;;;2.13;;
48859;SDS011;34679;51.436;-2.518;2024-03-25T09:29:41;11.60;;;1.98;;
48859;SDS011;34679;51.436;-2.518;2024-03-25T09:32:07;16.73;;;2.80;;
48859;SDS011;34679;51.436;-2.518;2024-03-25T09:34:33;16.50;;;3.13;;
48859;SDS011;34679;51.436;-2.518;2024-03-25T09:36:59;12.98;;;2.05;;
48859;SDS011;34679;51.436;-2.518;2024-03-25T09:39:25;15.63;;;2.70;;
48859;SDS011;34679;51.436;-2.518;2024-03-25T09:41:51;8.90;;;1.90;;
48859;SDS011;34679;51.436;-2.518;2024-03-25T09:44:22;8.18;;;2.03;;
48859;SDS011;34679;51.436;-2.518;2024-03-25T09:46:50;17.00;;;2.20;;
48859;SDS011;34679;51.436;-2.518;2024-03-25T09:49:16;15.13;;;2.58;;
48859;SDS011;34679;51.436;-2.518;2024-03-25T09:51:42;12.50;;;2.55;;
48859;SDS011;34679;51.436;-2.518;2024-03-25T09:54:08;7.78;;;2.17;;
48859;SDS011;34679;51.436;-2.518;2024-03-25T09:56:35;15.88;;;2.38;;
48859;SDS011;34679;51.436;-2.518;2024-03-25T09:59:02;14.02;;;1.63;;
48859;SDS011;34679;51.436;-2.518;2024-03-25T10:01:30;10.65;;;2.17;;
48859;SDS011;34679;51.436;-2.518;2024-03-25T10:03:55;7.07;;;1.77;;
48859;SDS011;34679;51.436;-2.518;2024-03-25T10:06:21;10.57;;;1.63;;
48859;SDS011;34679;51.436;-2.518;2024-03-25T10:08:47;10.73;;;1.75;;
48859;SDS011;34679;51.436;-2.518;2024-03-25T10:11:13;10.13;;;1.70;;
48859;SDS011;34679;51.436;-2.518;2024-03-25T10:13:40;7.88;;;1.85;;
48859;SDS011;34679;51.436;-2.518;2024-03-25T10:16:07;7.75;;;1.88;;
48859;SDS011;34679;51.436;-2.518;2024-03-25T10:18:33;5.00;;;1.75;;
48859;SDS011;34679;51.436;-2.518;2024-03-25T10:20:58;6.55;;;1.23;;
48859;SDS011;34679;51.436;-2.518;2024-03-25T10:23:24;16.85;;;2.83;;
48859;SDS011;34679;51.436;-2.518;2024-03-25T10:25:53;9.05;;;1.70;;
48859;SDS011;34679;51.436;-2.518;2024-03-25T10:28:19;11.27;;;2.22;;
48859;SDS011;34679;51.436;-2.518;2024-03-25T10:30:45;6.53;;;1.45;;
48859;SDS011;34679;51.436;-2.518;2024-03-25T10:33:12;7.82;;;1.95;;
48859;SDS011;34679;51.436;-2.518;2024-03-25T10:35:38;10.95;;;1.73;;
48859;SDS011;34679;51.436;-2.518;2024-03-25T10:38:05;7.47;;;1.42;;
48859;SDS011;34679;51.436;-2.518;2024-03-25T10:40:42;10.05;;;2.03;;
48859;SDS011;34679;51.436;-2.518;2024-03-25T10:43:09;13.38;;;1.95;;
48859;SDS011;34679;51.436;-2.518;2024-03-25T10:45:46;12.00;;;1.73;;
48859;SDS011;34679;51.436;-2.518;2024-03-25T10:48:17;7.95;;;1.33;;
48859;SDS011;34679;51.436;-2.518;2024-03-25T10:50:46;12.57;;;1.93;;
48859;SDS011;34679;51.436;-2.518;2024-03-25T10:53:14;7.38;;;1.67;;
48859;SDS011;34679;51.436;-2.518;2024-03-25T10:55:46;3.13;;;0.85;;
48859;SDS011;34679;51.436;-2.518;2024-03-25T10:58:13;9.80;;;2.25;;
48859;SDS011;34679;51.436;-2.518;2024-03-25T11:00:41;10.32;;;1.65;;
48859;SDS011;34679;51.436;-2.518;2024-03-25T11:03:10;13.68;;;2.33;;
48859;SDS011;34679;51.436;-2.518;2024-03-25T11:05:36;6.88;;;1.23;;
48859;SDS011;34679;51.436;-2.518;2024-03-25T11:08:12;11.90;;;1.63;;
48859;SDS011;34679;51.436;-2.518;2024-03-25T11:10:40;9.77;;;1.42;;
48859;SDS011;34679;51.436;-2.518;2024-03-25T11:13:26;13.90;;;1.75;;
48859;SDS011;34679;51.436;-2.518;2024-03-25T11:15:52;17.13;;;1.45;;
48859;SDS011;34679;51.436;-2.518;2024-03-25T11:18:21;12.25;;;1.58;;
48859;SDS011;34679;51.436;-2.518;2024-03-25T11:21:11;8.13;;;1.97;;
48859;SDS011;34679;51.436;-2.518;2024-03-25T11:23:44;7.63;;;1.58;;
48859;SDS011;34679;51.436;-2.518;2024-03-25T11:26:19;14.40;;;1.80;;
48859;SDS011;34679;51.436;-2.518;2024-03-25T11:28:52;11.20;;;2.42;;
48859;SDS011;34679;51.436;-2.518;2024-03-25T11:31:20;10.63;;;1.50;;
48859;SDS011;34679;51.436;-2.518;2024-03-25T11:33:46;8.07;;;1.60;;
48859;SDS011;34679;51.436;-2.518;2024-03-25T11:36:12;9.65;;;1.40;;
48859;SDS011;34679;51.436;-2.518;2024-03-25T11:38:38;12.20;;;1.88;;
48859;SDS011;34679;51.436;-2.518;2024-03-25T11:41:07;10.93;;;1.67;;
48859;SDS011;34679;51.436;-2.518;2024-03-25T11:43:33;16.42;;;2.35;;
48859;SDS011;34679;51.436;-2.518;2024-03-25T11:45:59;9.50;;;1.80;;
48859;SDS011;34679;51.436;-2.518;2024-03-25T11:48:24;16.85;;;2.63;;
48859;SDS011;34679;51.436;-2.518;2024-03-25T11:50:52;5.32;;;1.35;;
48859;SDS011;34679;51.436;-2.518;2024-03-25T11:53:18;8.35;;;1.55;;
48859;SDS011;34679;51.436;-2.518;2024-03-25T11:55:47;4.90;;;1.85;;
48859;SDS011;34679;51.436;-2.518;2024-03-25T11:58:16;10.90;;;1.33;;
48859;SDS011;34679;51.436;-2.518;2024-03-25T12:00:46;9.52;;;1.63;;
48859;SDS011;34679;51.436;-2.518;2024-03-25T12:03:14;7.57;;;1.52;;
48859;SDS011;34679;51.436;-2.518;2024-03-25T12:05:40;8.63;;;1.63;;
48859;SDS011;34679;51.436;-2.518;2024-03-25T12:08:09;11.55;;;1.83;;
48859;SDS011;34679;51.436;-2.518;2024-03-25T12:10:37;11.30;;;1.83;;
48859;SDS011;34679;51.436;-2.518;2024-03-25T12:13:21;14.32;;;1.95;;
48859;SDS011;34679;51.436;-2.518;2024-03-25T12:15:47;14.55;;;2.55;;
48859;SDS011;34679;51.436;-2.518;2024-03-25T12:18:13;12.30;;;1.83;;
48859;SDS011;34679;51.436;-2.518;2024-03-25T12:20:40;14.77;;;1.80;;
48859;SDS011;34679;51.436;-2.518;2024-03-25T12:23:06;10.25;;;1.67;;
48859;SDS011;34679;51.436;-2.518;2024-03-25T12:25:32;11.02;;;2.10;;
48859;SDS011;34679;51.436;-2.518;2024-03-25T12:27:58;10.70;;;2.22;;
48859;SDS011;34679;51.436;-2.518;2024-03-25T12:30:24;11.07;;;1.38;;
48859;SDS011;34679;51.436;-2.518;2024-03-25T12:32:50;7.75;;;1.65;;
48859;SDS011;34679;51.436;-2.518;2024-03-25T12:35:17;7.43;;;1.75;;
48859;SDS011;34679;51.436;-2.518;2024-03-25T12:37:44;7.25;;;1.48;;
48859;SDS011;34679;51.436;-2.518;2024-03-25T12:40:12;10.65;;;1.77;;
48859;SDS011;34679;51.436;-2.518;2024-03-25T12:42:52;13.57;;;3.92;;
48859;SDS011;34679;51.436;-2.518;2024-03-25T12:45:18;12.68;;;2.15;;
48859;SDS011;34679;51.436;-2.518;2024-03-25T12:47:48;9.55;;;2.05;;
48859;SDS011;34679;51.436;-2.518;2024-03-25T12:50:15;11.52;;;2.50;;
48859;SDS011;34679;51.436;-2.518;2024-03-25T12:52:40;9.68;;;2.97;;
48859;SDS011;34679;51.436;-2.518;2024-03-25T12:55:06;9.32;;;2.40;;
48859;SDS011;34679;51.436;-2.518;2024-03-25T12:57:32;10.20;;;2.50;;
48859;SDS011;34679;51.436;-2.518;2024-03-25T12:59:57;11.98;;;3.30;;
48859;SDS011;34679;51.436;-2.518;2024-03-25T13:02:23;11.32;;;3.25;;
48859;SDS011;34679;51.436;-2.518;2024-03-25T13:04:49;14.20;;;3.95;;
48859;SDS011;34679;51.436;-2.518;2024-03-25T13:07:15;14.70;;;4.30;;
48859;SDS011;34679;51.436;-2.518;2024-03-25T13:09:40;13.77;;;4.18;;
48859;SDS011;34679;51.436;-2.518;2024-03-25T13:12:06;14.48;;;4.30;;
48859;SDS011;34679;51.436;-2.518;2024-03-25T13:14:32;12.02;;;4.13;;
48859;SDS011;34679;51.436;-2.518;2024-03-25T13:16:58;13.55;;;4.15;;
48859;SDS011;34679;51.436;-2.518;2024-03-25T13:19:23;14.50;;;4.65;;
48859;SDS011;34679;51.436;-2.518;2024-03-25T13:21:53;15.98;;;4.60;;
48859;SDS011;34679;51.436;-2.518;2024-03-25T13:24:20;22.73;;;5.88;;
48859;SDS011;34679;51.436;-2.518;2024-03-25T13:26:45;18.95;;;5.90;;
48859;SDS011;34679;51.436;-2.518;2024-03-25T13:29:11;21.23;;;4.80;;
48859;SDS011;34679;51.436;-2.518;2024-03-25T13:31:37;13.82;;;4.45;;
48859;SDS011;34679;51.436;-2.518;2024-03-25T13:34:03;14.32;;;4.38;;
48859;SDS011;34679;51.436;-2.518;2024-03-25T13:36:29;20.33;;;5.75;;
48859;SDS011;34679;51.436;-2.518;2024-03-25T13:38:56;11.38;;;3.45;;
48859;SDS011;34679;51.436;-2.518;2024-03-25T13:41:22;12.05;;;4.00;;
48859;SDS011;34679;51.436;-2.518;2024-03-25T13:43:49;20.88;;;5.25;;
48859;SDS011;34679;51.436;-2.518;2024-03-25T13:46:15;14.27;;;3.67;;
48859;SDS011;34679;51.436;-2.518;2024-03-25T13:48:42;12.63;;;3.83;;
48859;SDS011;34679;51.436;-2.518;2024-03-25T13:51:07;9.73;;;2.90;;
48859;SDS011;34679;51.436;-2.518;2024-03-25T13:53:33;11.75;;;3.15;;
48859;SDS011;34679;51.436;-2.518;2024-03-25T13:55:59;8.32;;;2.65;;
48859;SDS011;34679;51.436;-2.518;2024-03-25T13:58:25;9.77;;;2.67;;
48859;SDS011;34679;51.436;-2.518;2024-03-25T14:00:51;7.65;;;1.80;;
48859;SDS011;34679;51.436;-2.518;2024-03-25T14:03:17;7.20;;;1.30;;
48859;SDS011;34679;51.436;-2.518;2024-03-25T14:05:43;8.02;;;1.63;;
48859;SDS011;34679;51.436;-2.518;2024-03-25T14:08:09;12.73;;;1.70;;
48859;SDS011;34679;51.436;-2.518;2024-03-25T14:10:35;6.22;;;1.60;;
48859;SDS011;34679;51.436;-2.518;2024-03-25T14:13:01;10.27;;;1.95;;
48859;SDS011;34679;51.436;-2.518;2024-03-25T14:15:26;7.47;;;1.80;;
48859;SDS011;34679;51.436;-2.518;2024-03-25T14:17:52;9.70;;;1.55;;
48859;SDS011;34679;51.436;-2.518;2024-03-25T14:20:18;18.48;;;2.42;;
48859;SDS011;34679;51.436;-2.518;2024-03-25T14:22:43;8.23;;;1.65;;